Time;durP1;ratioP1;P1;durP2;ratioP2;P2;SDS_P1;SDS_P2;PMS_P1;PMS_P2;Temp;Humidity;BMP_temperature;BMP_pressure;BME280_temperature;BME280_humidity;BME280_pressure;Samples;Min_cycle;Max_cycle;Signal;HPM_P1;HPM_P2
2021/11/01 00:02:04;;;;;;;5.82;3.88;;;11.00;99.90;;;;;;20910815;28;20060;-80
2021/11/01 00:12:06;;;;;;;6.85;4.90;;;10.90;99.90;;;;;;20922832;28;20045;-80
2021/11/01 00:22:07;;;;;;;10.15;5.15;;;10.90;99.90;;;;;;20893703;28;20119;-79
2021/11/01 00:32:09;;;;;;;19.27;7.67;;;10.90;99.90;;;;;;20923099;28;20029;-81
2021/11/01 00:42:10;;;;;;;11.00;6.88;;;10.90;99.90;;;;;;20916361;28;20040;-80
2021/11/01 00:52:12;;;;;;;11.35;7.53;;;10.80;99.90;;;;;;20933637;28;20032;-80
2021/11/01 01:02:14;;;;;;;12.05;7.35;;;10.70;99.90;;;;;;20896813;28;20386;-80
2021/11/01 01:12:15;;;;;;;13.50;6.60;;;10.60;99.90;;;;;;20922955;28;20034;-79
2021/11/01 01:32:46;;;;;;;16.35;8.45;;;10.60;99.90;;;;;;20885483;28;20056;-80
2021/11/01 01:42:47;;;;;;;15.63;9.00;;;10.60;99.90;;;;;;20923560;28;20036;-80
2021/11/01 01:52:53;;;;;;;16.73;9.53;;;10.40;99.90;;;;;;20906403;28;20034;-81
2021/11/01 02:02:54;;;;;;;16.92;8.45;;;10.30;99.90;;;;;;20915768;28;20029;-81
2021/11/01 02:13:19;;;;;;;11.93;7.72;;;10.40;99.90;;;;;;20910261;28;20037;-79
2021/11/01 02:23:42;;;;;;;11.75;6.00;;;10.50;99.90;;;;;;20935320;28;20025;-81
2021/11/01 02:33:46;;;;;;;12.98;8.48;;;10.40;99.90;;;;;;20910592;28;20082;-82
2021/11/01 02:43:59;;;;;;;15.85;7.10;;;10.60;99.90;;;;;;20927171;28;20029;-81
2021/11/01 02:54:02;;;;;;;3.35;1.50;;;10.70;99.90;;;;;;20947939;28;20720;-80
2021/11/01 03:04:03;;;;;;;1.42;0.60;;;10.90;99.90;;;;;;20914799;28;20064;-80
2021/11/01 03:14:04;;;;;;;0.50;0.30;;;11.20;99.90;;;;;;20932596;28;20044;-79
2021/11/01 03:24:06;;;;;;;0.90;0.50;;;11.10;99.90;;;;;;20910527;28;20051;-81
2021/11/01 03:34:09;;;;;;;1.55;0.38;;;11.00;99.90;;;;;;20933926;28;20044;-79
2021/11/01 03:44:18;;;;;;;3.15;0.60;;;10.80;99.90;;;;;;20933176;28;20033;-80
2021/11/01 03:54:21;;;;;;;4.97;1.00;;;10.40;99.90;;;;;;20935778;28;20033;-81
2021/11/01 04:04:22;;;;;;;7.03;0.88;;;10.10;99.90;;;;;;20933774;28;20033;-79
2021/11/01 04:14:25;;;;;;;6.57;0.90;;;10.00;99.90;;;;;;20920450;28;20026;-79
2021/11/01 04:24:30;;;;;;;5.40;1.40;;;9.90;99.90;;;;;;20934472;28;20036;-81
2021/11/01 04:34:35;;;;;;;13.77;1.08;;;9.70;99.90;;;;;;20895616;28;20032;-79
2021/11/01 04:54:37;;;;;;;4.13;1.13;;;9.50;99.90;;;;;;20930572;28;20060;-80
2021/11/01 05:04:40;;;;;;;1.43;0.60;;;9.40;99.90;;;;;;20889871;28;20035;-81
2021/11/01 05:24:54;;;;;;;3.28;0.40;;;9.50;99.90;;;;;;20934287;28;20111;-82
2021/11/01 05:34:55;;;;;;;0.30;0.30;;;9.50;99.90;;;;;;20896627;28;20090;-81
2021/11/01 05:44:57;;;;;;;4.70;0.53;;;9.60;99.90;;;;;;20911877;28;20025;-82
2021/11/01 05:55:06;;;;;;;0.95;0.20;;;9.40;99.90;;;;;;20931127;28;20043;-79
2021/11/01 06:05:17;;;;;;;1.63;0.40;;;9.40;99.90;;;;;;20970953;28;20485;-78
2021/11/01 06:15:18;;;;;;;1.65;0.50;;;9.20;99.90;;;;;;20993042;28;20032;-77
2021/11/01 06:25:19;;;;;;;8.57;6.27;;;9.10;99.90;;;;;;20990816;28;20028;-80
2021/11/01 06:46:02;;;;;;;4.72;0.93;;;8.90;99.90;;;;;;20989398;28;20512;-82
2021/11/01 06:56:17;;;;;;;1.48;0.52;;;8.80;99.90;;;;;;21011357;28;20040;-82
2021/11/01 07:16:51;;;;;;;4.35;1.40;;;8.80;99.90;;;;;;21006835;28;20028;-79
2021/11/01 08:29:00;;;;;;;11.40;3.67;;;9.40;99.90;;;;;;21016765;28;20032;-78
2021/11/01 09:41:09;;;;;;;1.88;1.00;;;10.60;99.90;;;;;;21006887;28;20028;-81
2021/11/01 09:51:10;;;;;;;9.38;3.45;;;10.50;99.90;;;;;;20971681;28;20036;-78
2021/11/01 10:01:15;;;;;;;7.70;3.13;;;10.30;99.90;;;;;;21005915;28;20048;-78
2021/11/01 10:11:19;;;;;;;8.68;4.93;;;10.20;99.90;;;;;;20988111;28;20040;-80
2021/11/01 10:21:21;;;;;;;5.97;2.83;;;10.20;99.90;;;;;;20989630;28;20032;-81
2021/11/01 10:31:24;;;;;;;3.25;2.53;;;10.00;99.90;;;;;;20997235;28;20040;-80
2021/11/01 10:41:39;;;;;;;22.20;8.57;;;9.90;99.90;;;;;;20955001;28;20044;-79
2021/11/01 11:22:57;;;;;;;4.93;2.13;;;10.30;99.90;;;;;;20915646;28;20036;-79
2021/11/01 11:53:20;;;;;;;29.27;14.05;;;10.40;99.90;;;;;;20878428;28;20142;-83
2021/11/01 12:03:21;;;;;;;4.60;1.92;;;10.60;99.90;;;;;;20877687;28;20120;-81
2021/11/01 12:23:41;;;;;;;3.13;1.52;;;10.90;99.90;;;;;;20901258;28;20033;-81
2021/11/01 12:33:55;;;;;;;3.33;1.55;;;10.90;99.90;;;;;;20882012;28;20109;-84
2021/11/01 13:04:50;;;;;;;1.70;1.45;;;11.20;99.90;;;;;;20891038;28;20597;-82
2021/11/01 13:25:27;;;;;;;2.80;1.90;;;11.70;99.90;;;;;;20836423;28;20040;-83
2021/11/01 13:35:52;;;;;;;4.22;2.10;;;12.10;99.90;;;;;;20868043;28;20029;-80
2021/11/01 13:45:54;;;;;;;5.35;1.60;;;12.30;99.90;;;;;;20872543;28;20198;-80
2021/11/01 13:56:05;;;;;;;0.73;0.60;;;12.40;99.90;;;;;;20855411;28;20704;-81
2021/11/01 15:18:16;;;;;;;2.10;1.05;;;11.90;99.90;;;;;;20895991;28;20489;-82
2021/11/01 16:19:40;;;;;;;33.17;14.23;;;10.80;99.90;;;;;;20870671;28;20033;-78
2021/11/01 16:39:50;;;;;;;1.20;0.80;;;10.50;99.90;;;;;;20882629;28;20033;-79
2021/11/01 16:49:55;;;;;;;2.13;0.85;;;10.30;99.90;;;;;;20858356;28;20036;-79
2021/11/01 17:00:11;;;;;;;1.65;1.30;;;10.10;99.90;;;;;;20856099;28;20150;-81
2021/11/01 18:43:14;;;;;;;8.68;4.95;;;7.60;99.90;;;;;;20800133;28;20133;-80
2021/11/01 18:53:23;;;;;;;7.95;3.30;;;7.80;99.90;;;;;;20829615;28;20034;-81
2021/11/01 19:03:26;;;;;;;12.35;3.95;;;7.30;99.90;;;;;;20815219;28;20136;-82
2021/11/01 20:05:59;;;;;;;17.35;6.15;;;6.00;99.90;;;;;;20789006;28;20795;-80
2021/11/01 21:28:11;;;;;;;70.20;7.80;;;5.70;99.90;;;;;;20793525;28;20128;-79
2021/11/01 21:38:12;;;;;;;;;;;5.60;99.90;;;;;;20800286;28;20030;-79
2021/11/01 21:48:13;;;;;;;10.37;3.47;;;5.60;99.90;;;;;;20803782;28;19956;-79
2021/11/01 22:59:18;;;;;;;7.72;2.30;;;5.60;99.90;;;;;;20811088;28;20607;-79
2021/11/01 23:40:18;;;;;;;11.60;5.22;;;5.80;99.90;;;;;;20837535;28;20034;-80
2021/11/01 23:50:19;;;;;;;17.50;6.00;;;5.80;99.90;;;;;;20816927;28;20129;-80
